createdAt,value
2022-11-10T00:00:21.720Z,9.9
2022-11-10T00:05:57.624Z,9.9
2022-11-10T00:11:47.906Z,9.9
2022-11-10T00:17:05.114Z,9.9
2022-11-10T00:22:42.648Z,9.8
2022-11-10T00:28:31.642Z,9.9
2022-11-10T00:33:52.065Z,10
2022-11-10T00:39:15.217Z,9.9
2022-11-10T00:44:57.190Z,10
2022-11-10T00:50:18.555Z,9.8
2022-11-10T00:56:02.373Z,9.6
2022-11-10T01:01:46.723Z,9.4
2022-11-10T01:07:15.624Z,9.4
2022-11-10T01:12:45.868Z,9.5
2022-11-10T01:18:18.199Z,9.3
2022-11-10T01:23:34.322Z,9.1
2022-11-10T01:29:09.557Z,9
2022-11-10T01:34:39.084Z,9
2022-11-10T01:40:19.594Z,9.1
2022-11-10T01:46:07.756Z,9.1
2022-11-10T01:51:27.378Z,9.4
2022-11-10T01:57:01.502Z,9.5
2022-11-10T02:02:24.839Z,9.7
2022-11-10T02:08:12.817Z,9.9
2022-11-10T02:13:48.369Z,9.9
2022-11-10T02:19:10.496Z,9.6
2022-11-10T02:24:51.369Z,9.5
2022-11-10T02:30:17.120Z,9.4
2022-11-10T02:35:35.251Z,9.2
2022-11-10T02:41:18.926Z,9.3
2022-11-10T02:46:58.618Z,9.3
2022-11-10T02:52:23.734Z,9.6
2022-11-10T02:58:11.842Z,9.6
2022-11-10T03:03:42.301Z,9.6
2022-11-10T03:09:13.259Z,9.5
2022-11-10T03:14:35.371Z,9.3
2022-11-10T03:20:04.043Z,9.1
2022-11-10T03:25:45.351Z,8.9
2022-11-10T03:31:20.810Z,9
2022-11-10T03:36:39.886Z,8.9
2022-11-10T03:42:08.251Z,8.8
2022-11-10T03:47:44.435Z,8.8
2022-11-10T03:53:39.326Z,8.9
2022-11-10T03:59:08.249Z,8.8
2022-11-10T04:04:28.055Z,8.6
2022-11-10T04:10:08.846Z,8.3
2022-11-10T04:15:28.216Z,8.3
2022-11-10T04:21:26.062Z,8.4
2022-11-10T04:26:43.032Z,8.5
2022-11-10T04:32:26.121Z,8.5
2022-11-10T04:37:59.495Z,8.4
2022-11-10T04:43:22.275Z,8.5
2022-11-10T04:48:43.467Z,8.3
2022-11-10T04:54:36.108Z,8.2
2022-11-10T04:59:50.449Z,8.2
2022-11-10T05:05:42.632Z,8.4
2022-11-10T05:11:08.059Z,8.4
2022-11-10T05:16:47.397Z,8
2022-11-10T05:22:23.309Z,8.2
2022-11-10T05:27:55.398Z,8.2
2022-11-10T05:33:21.334Z,7.8
2022-11-10T05:38:39.014Z,8
2022-11-10T05:44:16.543Z,8
2022-11-10T05:50:05.677Z,7.4
2022-11-10T05:55:40.872Z,7.5
2022-11-10T06:01:05.369Z,7.3
2022-11-10T06:06:22.085Z,7.2
2022-11-10T06:11:50.151Z,7
2022-11-10T06:17:46.015Z,6.8
2022-11-10T06:23:11.360Z,6.8
2022-11-10T06:28:31.844Z,6.8
2022-11-10T06:34:02.779Z,7.1
2022-11-10T06:39:55.888Z,7
2022-11-10T06:45:30.095Z,7.6
2022-11-10T06:51:00.842Z,7.3
2022-11-10T06:56:38.955Z,7.1
2022-11-10T07:01:57.816Z,7
2022-11-10T07:07:40.032Z,7.1
2022-11-10T07:13:04.893Z,7.1
2022-11-10T07:18:50.419Z,7.1
2022-11-10T07:24:21.765Z,7.2
2022-11-10T07:29:27.206Z,7.5
2022-11-10T07:35:23.368Z,7.8
2022-11-10T07:40:44.497Z,7.9
2022-11-10T07:46:27.252Z,7.8
2022-11-10T07:51:43.686Z,7.9
2022-11-10T07:57:16.057Z,7.8
2022-11-10T08:03:03.499Z,7.9
2022-11-10T08:08:32.249Z,8.1
2022-11-10T08:13:59.551Z,8.3
2022-11-10T08:19:42.003Z,8.3
2022-11-10T08:25:03.040Z,8.4
2022-11-10T08:30:44.684Z,8.4
2022-11-10T08:36:17.190Z,8.5
2022-11-10T08:41:59.149Z,8.3
2022-11-10T08:47:29.574Z,8.2
2022-11-10T08:53:02.906Z,8.2
2022-11-10T08:58:36.887Z,8.5
2022-11-10T09:04:08.966Z,8.6
2022-11-10T09:09:39.360Z,8.6
2022-11-10T09:15:02.120Z,8.9
2022-11-10T09:20:28.605Z,9
2022-11-10T09:26:23.091Z,9.3
2022-11-10T09:31:52.916Z,9.5
2022-11-10T09:37:25.704Z,9.6
2022-11-10T09:43:00.613Z,9.5
2022-11-10T09:48:15.423Z,9.7
2022-11-10T09:54:15.085Z,9.8
2022-11-10T09:59:37.203Z,10
2022-11-10T10:05:20.330Z,10.2
2022-11-10T10:10:32.420Z,10.3
2022-11-10T10:16:02.069Z,10.5
2022-11-10T10:21:57.209Z,11
2022-11-10T10:27:34.144Z,11.3
2022-11-10T10:32:45.526Z,11.6
2022-11-10T10:38:27.370Z,11.7
2022-11-10T10:43:58.648Z,11.8
2022-11-10T10:49:30.412Z,12.1
2022-11-10T10:54:58.284Z,12.2
2022-11-10T11:00:31.478Z,12.3
2022-11-10T11:06:08.336Z,12.4
2022-11-10T11:11:41.394Z,12.7
2022-11-10T11:17:12.929Z,12.7
2022-11-10T11:22:55.446Z,12.8
2022-11-10T11:28:45.789Z,13
2022-11-10T11:34:02.833Z,13.1
2022-11-10T11:39:53.268Z,13
2022-11-10T11:45:19.508Z,13
2022-11-10T11:50:37.568Z,13.1
2022-11-10T11:56:34.021Z,13.2
2022-11-10T12:01:48.020Z,13.1
2022-11-10T12:07:42.829Z,13.3
2022-11-10T12:13:04.717Z,13.3
2022-11-10T12:18:29.132Z,13.4
2022-11-10T12:24:14.025Z,13.5
2022-11-10T12:29:45.432Z,13.5
2022-11-10T12:35:16.762Z,13.6
2022-11-10T12:41:05.085Z,13.7
2022-11-10T12:46:23.547Z,13.7
2022-11-10T12:51:55.054Z,13.7
2022-11-10T12:57:45.098Z,13.7
2022-11-10T13:03:17.215Z,13.8
2022-11-10T13:08:49.093Z,13.8
2022-11-10T13:14:25.555Z,13.9
2022-11-10T13:20:27.725Z,14.1
2022-11-10T13:25:14.903Z,14.1
2022-11-10T13:30:48.837Z,13.9
2022-11-10T13:36:26.418Z,14
2022-11-10T13:42:23.791Z,13.9
2022-11-10T13:47:38.551Z,13.8
2022-11-10T13:53:23.375Z,13.8
2022-11-10T13:58:47.559Z,13.8
2022-11-10T14:04:44.707Z,13.8
2022-11-10T14:10:07.765Z,13.9
2022-11-10T14:15:34.249Z,13.7
2022-11-10T14:21:24.643Z,13.6
2022-11-10T14:26:56.163Z,13.5
2022-11-10T14:32:27.530Z,13.5
2022-11-10T14:38:02.776Z,13.5
2022-11-10T14:43:42.993Z,13.3
2022-11-10T14:48:55.678Z,13.1
2022-11-10T14:54:42.548Z,13.1
2022-11-10T15:00:03.432Z,13
2022-11-10T15:05:50.109Z,12.8
2022-11-10T15:11:27.437Z,12.8
2022-11-10T15:17:00.967Z,12.6
2022-11-10T15:22:14.827Z,12.4
2022-11-10T15:27:56.184Z,12.3
2022-11-10T15:33:27.678Z,12.1
2022-11-10T15:39:21.341Z,11.8
2022-11-10T15:44:27.284Z,11.7
2022-11-10T15:50:05.033Z,11.5
2022-11-10T15:55:52.015Z,11.3
2022-11-10T16:01:09.594Z,11.1
2022-11-10T16:06:38.176Z,10.9
2022-11-10T16:12:13.340Z,10.9
2022-11-10T16:18:04.342Z,11
2022-11-10T16:23:26.072Z,11.1
2022-11-10T16:28:56.453Z,11
2022-11-10T16:34:44.892Z,11
2022-11-10T16:40:01.864Z,11
2022-11-10T16:45:32.689Z,10.7
2022-11-10T16:51:13.733Z,10.7
2022-11-10T16:56:36.216Z,10.4
2022-11-10T17:02:08.797Z,10.2
2022-11-10T17:07:45.404Z,10.4
2022-11-10T17:13:19.077Z,10.3
2022-11-10T17:19:00.907Z,10.2
2022-11-10T17:24:31.966Z,10.2
2022-11-10T17:30:05.544Z,9.9
2022-11-10T17:35:48.212Z,9.3
2022-11-10T17:40:57.799Z,9
2022-11-10T17:46:30.091Z,9.3
2022-11-10T17:52:02.957Z,9.4
2022-11-10T17:57:50.977Z,9.5
2022-11-10T18:03:09.605Z,9.5
2022-11-10T18:08:54.649Z,9.6
2022-11-10T18:14:18.130Z,9.4
2022-11-10T18:20:09.856Z,9.3
2022-11-10T18:25:46.249Z,9.1
2022-11-10T18:30:56.775Z,9
2022-11-10T18:36:50.783Z,8.9
2022-11-10T18:42:12.136Z,9.3
2022-11-10T18:47:44.408Z,9.1
2022-11-10T18:53:23.788Z,8.9
2022-11-10T18:58:56.345Z,9
2022-11-10T19:04:28.792Z,9.2
2022-11-10T19:10:00.902Z,8.8
2022-11-10T19:15:16.013Z,9.1
2022-11-10T19:20:56.027Z,8.9
2022-11-10T19:26:23.561Z,9
2022-11-10T19:32:07.482Z,9.1
2022-11-10T19:37:29.756Z,8.9
2022-11-10T19:43:06.049Z,8.7
2022-11-10T19:48:45.233Z,8.6
2022-11-10T19:54:04.210Z,8.7
2022-11-10T19:59:51.204Z,8.5
2022-11-10T20:05:17.923Z,8.3
2022-11-10T20:10:48.216Z,8.3
2022-11-10T20:16:35.849Z,8.6
2022-11-10T20:21:50.153Z,8.2
2022-11-10T20:27:42.303Z,8.4
2022-11-10T20:33:15.303Z,8.4
2022-11-10T20:38:22.629Z,8.2
2022-11-10T20:44:12.388Z,8.4
2022-11-10T20:49:38.114Z,8.4
2022-11-10T20:55:43.988Z,8.5
2022-11-10T21:00:57.721Z,8.4
2022-11-10T21:06:14.306Z,8.2
2022-11-10T21:12:00.326Z,7.7
2022-11-10T21:17:29.668Z,6.8
2022-11-10T21:22:48.132Z,6.4
2022-11-10T21:28:30.624Z,6.5
2022-11-10T21:34:09.118Z,6.3
2022-11-10T21:39:37.434Z,7
2022-11-10T21:45:03.299Z,7.6
2022-11-10T21:50:47.896Z,7.9
2022-11-10T21:56:15.771Z,7.8
2022-11-10T22:01:32.793Z,7.4
2022-11-10T22:07:12.329Z,7.6
2022-11-10T22:12:32.932Z,7.3
2022-11-10T22:18:24.129Z,7.2
2022-11-10T22:23:40.341Z,7.2
2022-11-10T22:29:31.385Z,7.6
2022-11-10T22:35:02.533Z,8.5
2022-11-10T22:40:33.290Z,8.4
2022-11-10T22:45:59.616Z,8.4
2022-11-10T22:51:23.219Z,8.3
2022-11-10T22:57:20.003Z,8
2022-11-10T23:02:42.777Z,7.5
2022-11-10T23:08:08.257Z,7.2
2022-11-10T23:13:49.545Z,6.9
2022-11-10T23:19:10.976Z,6.7
2022-11-10T23:24:57.562Z,6.7
2022-11-10T23:30:20.156Z,6.7
2022-11-10T23:35:49.532Z,7
2022-11-10T23:41:32.365Z,7.6
2022-11-10T23:47:05.939Z,7.7
2022-11-10T23:52:42.809Z,7.9
2022-11-10T23:57:56.232Z,7.9
